Wake Forest, NC

8:48 AM EST on November 23, 2014 (GMT -0500)
Henderson-Oxford | Change Station
CLOSE
Current Station
Airport
Location: Oxford,
Elevation: 528 ft
Nearby Weather Stations

Elev 528 ft 36.36 °N, 78.53 °W | Updated 13 minutes ago

Partly Cloudy
Partly Cloudy
41 °F
Feels Like 39 °F
N
4
Wind Variable Wind from South

Today
High -- | Low -- °F
--% Chance of Precip.
Yesterday
High -- | Low -- °F
Precip. -- in
6:58 AM 5:02 PM
New Moon, 1% visible
Pressure 30.24 in
Visibility 10.0 miles
Clouds Clear
Windchill 39 °F
Dew Point 31 °F
Humidity 67%
Rainfall 0.00 in
Snow Depth Not available.
UV 1 out of 12
Pollen .30 out of 12
Air Quality Not available.
Flu Activity Not available.
METAR KHNZ 231335Z AUTO 18003KT 10SM CLR 05/M01 A3024 RMK AO2 T00491008

More Conditions Fewer Conditions

Pressure 30.24 in
Visibility 10.0 miles
Clouds Clear
Windchill 39 °F
Dew Point 31 °F
Humidity 67%
Rainfall 0.00 in
Snow Depth Not available.
UV 1 out of 12
Pollen .30 out of 12
Air Quality Not available.
Flu Activity Not available.
METAR KHNZ 231335Z AUTO 18003KT 10SM CLR 05/M01 A3024 RMK AO2 T00491008

More Conditions Fewer Conditions

10-Day Weather Forecast

Almanac

Astronomy

Nov. 23, 2014 Rise Set
Actual Time
Civil Twilight
Nautical Twilight
Astronomical Twilight
Moon
Length of Visible Light
Length of Day
Tomorrow will be .
, % of the Moon is Illuminated

Today's Extremes

State Highs State Lows

Community

WunderPhotos

Upload Photos

1,773,062 photos uploaded!

WunderBlogs® & News

Nearby

Air Quality

  Air Quality AQ Index Pollutant
Not available.

Snow Depth

Station Depth Elevation

Earthquake Activity

City Distance Mag. Time & Date
Minimum magnitude displayed is 2.5.

Coastal Water Temperatures

Place Temperature

Nearby Weather Stations